Time;durP1;ratioP1;P1;durP2;ratioP2;P2;SDS_P1;SDS_P2;PMS_P1;PMS_P2;Temp;Humidity;BMP_temperature;BMP_pressure;BME280_temperature;BME280_humidity;BME280_pressure;Samples;Min_cycle;Max_cycle;Signal;HPM_P1;HPM_P2
2023/04/15 00:01:32;;;;;;;0.00;0.00;;;4.10;99.90;;;;;;5074623;28;20100;-84
2023/04/15 00:03:58;;;;;;;0.10;0.10;;;4.00;99.90;;;;;;5073027;28;20048;-83
2023/04/15 00:06:25;;;;;;;6.00;1.45;;;4.00;99.90;;;;;;5074340;28;20078;-83
2023/04/15 00:08:51;;;;;;;0.22;0.22;;;4.00;99.90;;;;;;5074751;28;20052;-84
2023/04/15 00:11:17;;;;;;;0.43;0.43;;;3.90;99.90;;;;;;5075027;28;20061;-83
2023/04/15 00:13:43;;;;;;;0.00;0.00;;;3.90;99.90;;;;;;5074320;28;20151;-83
2023/04/15 00:16:09;;;;;;;0.55;0.55;;;3.90;99.90;;;;;;5074924;28;20079;-82
2023/04/15 00:18:36;;;;;;;1.55;0.98;;;3.90;99.90;;;;;;5074256;28;20064;-83
2023/04/15 00:21:03;;;;;;;0.80;0.80;;;3.90;99.90;;;;;;5072992;28;20054;-83
2023/04/15 00:23:28;;;;;;;2.28;1.80;;;3.90;99.90;;;;;;5073077;28;20054;-84
2023/04/15 00:25:54;;;;;;;0.75;0.75;;;3.90;99.90;;;;;;5073877;28;20048;-84
2023/04/15 00:28:20;;;;;;;0.08;0.08;;;3.90;99.90;;;;;;5072698;28;20108;-84
2023/04/15 00:30:46;;;;;;;0.20;0.20;;;3.80;99.90;;;;;;5073100;28;20063;-84
2023/04/15 00:33:12;;;;;;;0.00;0.00;;;3.80;99.90;;;;;;5074177;28;20048;-82
2023/04/15 00:35:38;;;;;;;0.00;0.00;;;3.70;99.90;;;;;;5074092;28;20032;-83
2023/04/15 00:38:07;;;;;;;0.43;0.35;;;3.70;99.90;;;;;;5074254;28;20097;-82
2023/04/15 00:40:33;;;;;;;0.43;0.43;;;3.60;99.90;;;;;;5071535;28;20056;-83
2023/04/15 00:42:59;;;;;;;1.15;1.08;;;3.60;99.90;;;;;;5073767;28;20418;-82
2023/04/15 00:45:26;;;;;;;0.45;0.40;;;3.60;99.90;;;;;;5072976;28;20044;-83
2023/04/15 00:47:53;;;;;;;0.25;0.20;;;3.60;99.90;;;;;;5072786;28;20104;-83
2023/04/15 00:50:22;;;;;;;0.10;0.10;;;3.50;99.90;;;;;;5071579;28;20091;-83
2023/04/15 00:52:48;;;;;;;0.10;0.10;;;3.40;99.90;;;;;;5072588;28;20055;-83
2023/04/15 00:55:14;;;;;;;0.00;0.00;;;3.40;99.90;;;;;;5070064;28;20052;-83
2023/04/15 00:57:40;;;;;;;0.40;0.38;;;3.40;99.90;;;;;;5070876;28;20530;-83
2023/04/15 01:00:07;;;;;;;0.10;0.10;;;3.80;99.90;;;;;;5054368;28;20079;-83
2023/04/15 01:02:34;;;;;;;0.00;0.00;;;3.40;99.90;;;;;;5072763;28;20076;-83
2023/04/15 01:05:00;;;;;;;2.00;1.45;;;3.40;99.90;;;;;;5071003;28;20045;-84
2023/04/15 01:07:25;;;;;;;0.28;0.28;;;3.40;99.90;;;;;;5071125;28;20052;-83
2023/04/15 01:09:52;;;;;;;0.75;0.43;;;3.40;99.90;;;;;;5071693;28;20643;-83
2023/04/15 01:12:19;;;;;;;0.08;0.08;;;3.40;99.90;;;;;;5071543;28;20389;-84
2023/04/15 01:14:45;;;;;;;0.40;0.40;;;3.80;99.90;;;;;;5070632;28;20056;-83
2023/04/15 01:17:11;;;;;;;0.00;0.00;;;3.50;99.90;;;;;;5070672;28;20414;-83
2023/04/15 01:19:37;;;;;;;0.70;0.40;;;3.50;99.90;;;;;;5072852;28;20048;-84
2023/04/15 01:22:04;;;;;;;0.38;0.38;;;4.10;99.90;;;;;;5091377;28;20097;-84
2023/04/15 01:24:32;;;;;;;1.08;0.32;;;3.50;99.90;;;;;;5073920;28;20033;-84
2023/04/15 01:26:58;;;;;;;0.47;0.47;;;3.50;99.90;;;;;;5090963;28;20044;-84
2023/04/15 01:29:23;;;;;;;0.05;0.05;;;3.40;99.90;;;;;;5090738;28;20039;-82
2023/04/15 01:31:54;;;;;;;1.10;1.00;;;3.30;99.90;;;;;;5085038;28;20076;-83
2023/04/15 01:34:21;;;;;;;0.00;0.00;;;3.30;99.90;;;;;;5082927;28;20052;-83
2023/04/15 01:36:47;;;;;;;0.00;0.00;;;3.20;99.90;;;;;;5081866;28;20037;-82
2023/04/15 01:39:13;;;;;;;0.30;0.30;;;3.20;99.90;;;;;;5081849;28;20050;-83
2023/04/15 01:41:39;;;;;;;0.85;0.55;;;3.20;99.90;;;;;;5079666;28;20559;-84
2023/04/15 01:44:06;;;;;;;1.10;1.00;;;3.10;99.90;;;;;;5077875;28;20063;-82
2023/04/15 01:46:32;;;;;;;0.75;0.75;;;3.20;99.90;;;;;;5078706;28;20134;-83
2023/04/15 01:48:57;;;;;;;0.52;0.52;;;3.20;99.90;;;;;;5079175;28;20040;-83
2023/04/15 01:51:23;;;;;;;0.75;0.75;;;3.20;99.90;;;;;;5080654;28;20040;-84
2023/04/15 01:53:49;;;;;;;0.25;0.25;;;3.10;99.90;;;;;;5082627;28;20111;-82
2023/04/15 01:56:14;;;;;;;0.88;0.60;;;3.10;99.90;;;;;;5082375;28;20048;-82
2023/04/15 01:58:40;;;;;;;0.05;0.05;;;3.00;99.90;;;;;;5080453;28;20057;-83
2023/04/15 02:01:06;;;;;;;0.10;0.10;;;3.00;99.90;;;;;;5080052;28;20104;-84
2023/04/15 02:03:32;;;;;;;0.00;0.00;;;3.00;99.90;;;;;;5079128;28;20071;-83
2023/04/15 02:05:58;;;;;;;4.47;0.65;;;2.90;99.90;;;;;;5078717;28;20037;-83
2023/04/15 02:08:24;;;;;;;0.10;0.10;;;3.00;99.90;;;;;;5077799;28;20070;-83
2023/04/15 02:10:50;;;;;;;0.30;0.30;;;2.90;99.90;;;;;;5076692;28;20060;-83
2023/04/15 02:13:15;;;;;;;1.48;0.52;;;3.00;99.90;;;;;;5077777;28;20040;-83
2023/04/15 02:15:47;;;;;;;1.80;0.75;;;3.00;99.90;;;;;;5076770;28;20055;-84
2023/04/15 02:18:13;;;;;;;1.20;0.88;;;3.00;99.90;;;;;;5077068;28;20095;-84
2023/04/15 02:20:39;;;;;;;2.13;0.45;;;2.90;99.90;;;;;;5077877;28;20041;-83
2023/04/15 02:23:06;;;;;;;0.40;0.40;;;2.80;99.90;;;;;;5076953;28;20108;-83
2023/04/15 02:25:32;;;;;;;0.00;0.00;;;2.80;99.90;;;;;;5078232;28;20071;-83
2023/04/15 02:27:57;;;;;;;1.05;1.00;;;2.70;99.90;;;;;;5078816;28;20561;-83
2023/04/15 02:30:24;;;;;;;1.23;1.13;;;2.60;99.90;;;;;;5078315;28;20051;-83
2023/04/15 02:32:50;;;;;;;0.00;0.00;;;2.60;99.90;;;;;;5078907;28;20104;-84
2023/04/15 02:35:18;;;;;;;0.00;0.00;;;2.70;99.90;;;;;;5077346;28;20072;-83
2023/04/15 02:37:45;;;;;;;0.38;0.38;;;2.60;99.90;;;;;;5077617;28;20087;-83
2023/04/15 02:40:12;;;;;;;0.35;0.32;;;2.50;99.90;;;;;;5077887;28;20115;-82
2023/04/15 02:42:41;;;;;;;1.75;0.38;;;2.40;99.90;;;;;;5077840;28;20044;-83
2023/04/15 02:45:08;;;;;;;0.32;0.32;;;2.40;99.90;;;;;;5077942;28;20048;-83
2023/04/15 02:47:34;;;;;;;0.10;0.10;;;2.30;99.90;;;;;;5077434;28;20079;-85
2023/04/15 02:50:02;;;;;;;0.20;0.20;;;2.30;99.90;;;;;;5076466;28;20052;-83
2023/04/15 02:52:28;;;;;;;0.70;0.70;;;2.30;99.90;;;;;;5077109;28;20041;-83
2023/04/15 02:54:59;;;;;;;0.00;0.00;;;2.30;99.90;;;;;;5076963;28;20154;-82
2023/04/15 02:57:27;;;;;;;0.55;0.50;;;3.10;99.90;;;;;;5076061;28;20079;-83
2023/04/15 02:59:53;;;;;;;0.30;0.30;;;3.20;99.90;;;;;;5077068;28;20056;-83
2023/04/15 03:02:19;;;;;;;0.20;0.20;;;2.50;99.90;;;;;;5075293;28;20044;-83
2023/04/15 03:04:44;;;;;;;0.55;0.28;;;2.50;99.90;;;;;;5076762;28;20049;-83
2023/04/15 03:07:10;;;;;;;0.00;0.00;;;2.50;99.90;;;;;;5077363;28;20048;-83
2023/04/15 03:09:38;;;;;;;0.28;0.28;;;2.40;99.90;;;;;;5075671;28;20047;-83
2023/04/15 03:12:04;;;;;;;0.00;0.00;;;2.40;99.90;;;;;;5076170;28;20490;-83
2023/04/15 03:14:29;;;;;;;0.00;0.00;;;2.40;99.90;;;;;;5077100;28;20041;-84
2023/04/15 03:16:56;;;;;;;1.48;0.93;;;2.30;99.90;;;;;;5075623;28;20136;-84
2023/04/15 03:19:21;;;;;;;0.00;0.00;;;2.30;99.90;;;;;;5074580;28;20083;-83
2023/04/15 03:21:47;;;;;;;0.28;0.28;;;2.20;99.90;;;;;;5076306;28;20070;-83
2023/04/15 03:24:13;;;;;;;0.08;0.08;;;2.20;99.90;;;;;;5075162;28;20104;-83
2023/04/15 03:26:38;;;;;;;0.00;0.00;;;2.30;99.90;;;;;;5073520;28;20539;-83
2023/04/15 03:29:04;;;;;;;0.32;0.32;;;2.30;99.90;;;;;;5072634;28;20045;-83
2023/04/15 03:31:30;;;;;;;3.10;2.13;;;2.30;99.90;;;;;;5073689;28;20086;-84
2023/04/15 03:33:56;;;;;;;0.30;0.28;;;2.20;99.90;;;;;;5071413;28;20096;-84
2023/04/15 03:36:21;;;;;;;0.28;0.28;;;2.20;99.90;;;;;;5072224;28;20051;-84
2023/04/15 03:38:48;;;;;;;1.20;1.10;;;2.20;99.90;;;;;;5071928;28;20044;-84
2023/04/15 03:41:13;;;;;;;0.75;0.38;;;2.20;99.90;;;;;;5071634;28;20074;-83
2023/04/15 03:43:39;;;;;;;0.28;0.25;;;2.10;99.90;;;;;;5072861;28;20127;-83
2023/04/15 03:46:05;;;;;;;0.25;0.25;;;2.10;99.90;;;;;;5073204;28;20041;-84
2023/04/15 03:48:31;;;;;;;0.25;0.25;;;2.10;99.90;;;;;;5072611;28;20049;-84
2023/04/15 03:50:57;;;;;;;0.50;0.50;;;2.10;99.90;;;;;;5072780;28;20634;-84
2023/04/15 03:53:22;;;;;;;0.00;0.00;;;2.10;99.90;;;;;;5078280;28;20045;-83
2023/04/15 03:55:48;;;;;;;1.38;0.68;;;1.90;99.90;;;;;;5090530;28;20048;-82
2023/04/15 03:58:14;;;;;;;0.25;0.25;;;1.80;99.90;;;;;;5091272;28;20040;-82
2023/04/15 04:00:40;;;;;;;0.03;0.03;;;1.60;99.90;;;;;;5092744;28;20028;-83
2023/04/15 04:03:06;;;;;;;0.15;0.15;;;1.50;99.90;;;;;;5092372;28;20048;-83
2023/04/15 04:05:37;;;;;;;0.25;0.25;;;1.40;99.90;;;;;;5092620;28;20055;-83
2023/04/15 04:08:03;;;;;;;1.08;0.95;;;1.50;99.90;;;;;;5092002;28;20040;-82
2023/04/15 04:10:29;;;;;;;0.00;0.00;;;1.40;99.90;;;;;;5091952;28;20041;-83
2023/04/15 04:12:55;;;;;;;0.25;0.25;;;1.40;99.90;;;;;;5075669;28;20155;-82
2023/04/15 04:15:21;;;;;;;0.15;0.15;;;1.30;99.90;;;;;;5073748;28;20052;-83
2023/04/15 04:17:47;;;;;;;1.77;0.57;;;1.30;99.90;;;;;;5074607;28;20088;-83
2023/04/15 04:20:12;;;;;;;0.20;0.20;;;1.20;99.90;;;;;;5073601;28;20048;-83
2023/04/15 04:22:39;;;;;;;0.10;0.10;;;1.10;99.90;;;;;;5073955;28;20075;-82
2023/04/15 04:25:07;;;;;;;0.00;0.00;;;1.00;99.90;;;;;;5073552;28;20044;-83
2023/04/15 04:27:33;;;;;;;0.00;0.00;;;1.00;99.90;;;;;;5072759;28;20502;-82
2023/04/15 04:29:59;;;;;;;0.03;0.03;;;1.00;99.90;;;;;;5073801;28;20589;-83
2023/04/15 04:32:25;;;;;;;0.20;0.20;;;1.00;99.90;;;;;;5073389;28;20044;-83
2023/04/15 04:34:51;;;;;;;0.10;0.10;;;1.00;99.90;;;;;;5073422;28;20062;-82
2023/04/15 04:37:16;;;;;;;0.80;0.80;;;1.00;99.90;;;;;;5073123;28;20127;-82
2023/04/15 04:39:42;;;;;;;0.00;0.00;;;0.90;99.90;;;;;;5072874;28;20044;-83
2023/04/15 04:42:08;;;;;;;0.35;0.35;;;2.20;99.90;;;;;;5071237;28;20048;-83
2023/04/15 04:44:33;;;;;;;0.10;0.10;;;1.00;99.90;;;;;;5071122;28;20159;-83
2023/04/15 04:46:59;;;;;;;0.00;0.00;;;1.00;99.90;;;;;;5073784;28;20046;-83
2023/04/15 04:49:25;;;;;;;0.30;0.30;;;1.00;99.90;;;;;;5072695;28;20430;-82
2023/04/15 04:51:51;;;;;;;0.00;0.00;;;1.10;99.90;;;;;;5072777;28;20037;-82
2023/04/15 04:54:17;;;;;;;0.32;0.32;;;1.10;99.90;;;;;;5073165;28;20048;-82
2023/04/15 04:56:42;;;;;;;0.15;0.15;;;1.20;99.90;;;;;;5073040;28;20045;-82
2023/04/15 04:59:08;;;;;;;0.28;0.28;;;1.30;99.90;;;;;;5072763;28;20414;-83
2023/04/15 05:01:34;;;;;;;0.55;0.55;;;1.30;99.90;;;;;;5073657;28;20044;-82
2023/04/15 05:04:00;;;;;;;0.30;0.30;;;1.30;99.90;;;;;;5072667;28;20044;-82
2023/04/15 05:06:26;;;;;;;0.00;0.00;;;1.40;99.90;;;;;;5070815;28;20043;-83
2023/04/15 05:08:52;;;;;;;0.90;0.88;;;1.40;99.90;;;;;;5071244;28;20071;-83
2023/04/15 05:11:20;;;;;;;0.52;0.52;;;1.60;99.90;;;;;;5072099;28;20044;-82
2023/04/15 05:13:46;;;;;;;0.63;0.60;;;1.70;99.90;;;;;;5071582;28;20044;-83
2023/04/15 05:16:12;;;;;;;0.20;0.20;;;1.90;99.90;;;;;;5071648;28;20131;-83
2023/04/15 05:18:37;;;;;;;0.22;0.22;;;2.10;99.90;;;;;;5071644;28;20061;-83
2023/04/15 05:21:03;;;;;;;1.05;0.95;;;2.30;99.90;;;;;;5071925;28;20111;-82
2023/04/15 05:23:29;;;;;;;0.47;0.47;;;2.40;99.90;;;;;;5072162;28;20048;-82
2023/04/15 05:25:55;;;;;;;3.22;1.00;;;2.50;99.90;;;;;;5075504;28;20097;-83
2023/04/15 05:28:21;;;;;;;0.20;0.20;;;2.60;99.90;;;;;;5075942;28;20036;-82
2023/04/15 05:30:46;;;;;;;0.30;0.30;;;2.70;99.90;;;;;;5076137;28;20488;-83
2023/04/15 05:33:12;;;;;;;0.20;0.20;;;2.90;99.90;;;;;;5076183;28;20861;-83
2023/04/15 05:35:38;;;;;;;0.60;0.60;;;3.30;99.90;;;;;;5075148;28;20048;-82
2023/04/15 05:38:03;;;;;;;0.30;0.30;;;3.60;99.90;;;;;;5075420;28;20041;-83
2023/04/15 05:40:30;;;;;;;0.95;0.93;;;3.80;99.90;;;;;;5075200;28;20395;-82
2023/04/15 05:42:56;;;;;;;0.93;0.73;;;4.10;99.90;;;;;;5076056;28;20048;-84
2023/04/15 05:45:21;;;;;;;1.40;1.30;;;4.30;99.90;;;;;;5077849;28;20128;-84
2023/04/15 05:47:49;;;;;;;0.63;0.63;;;4.60;99.90;;;;;;5078930;28;20045;-84
2023/04/15 05:50:15;;;;;;;0.95;0.45;;;4.80;99.90;;;;;;5076647;28;20052;-85
2023/04/15 05:52:41;;;;;;;0.03;0.03;;;4.80;99.90;;;;;;5078600;28;20116;-84
2023/04/15 05:55:07;;;;;;;0.75;0.75;;;4.90;99.90;;;;;;5077504;28;20047;-85
2023/04/15 05:57:33;;;;;;;0.73;0.73;;;5.00;99.90;;;;;;5076511;28;20052;-83
2023/04/15 05:59:58;;;;;;;0.38;0.38;;;5.10;99.90;;;;;;5075531;28;20037;-83
2023/04/15 06:02:25;;;;;;;0.73;0.73;;;5.20;99.90;;;;;;5074129;28;20051;-85
2023/04/15 06:04:51;;;;;;;0.63;0.63;;;5.20;99.90;;;;;;5074174;28;20125;-85
2023/04/15 06:07:16;;;;;;;4.22;0.95;;;5.30;99.90;;;;;;5075499;28;20044;-85
2023/04/15 06:09:43;;;;;;;0.55;0.55;;;5.30;99.90;;;;;;5076757;28;20052;-86
2023/04/15 06:12:11;;;;;;;0.25;0.25;;;5.40;99.90;;;;;;5076437;28;20052;-84
2023/04/15 06:14:38;;;;;;;0.52;0.45;;;5.60;99.90;;;;;;5076453;28;20052;-84
2023/04/15 06:17:03;;;;;;;0.57;0.57;;;5.80;99.90;;;;;;5076566;28;20053;-84
2023/04/15 06:19:29;;;;;;;1.65;1.20;;;6.00;99.90;;;;;;5075703;28;20109;-84
2023/04/15 06:21:55;;;;;;;0.45;0.45;;;6.90;99.90;;;;;;5075274;28;20079;-85
2023/04/15 06:24:21;;;;;;;0.88;0.80;;;7.00;99.90;;;;;;5073935;28;20052;-85
2023/04/15 06:26:47;;;;;;;0.73;0.73;;;6.50;99.90;;;;;;5074570;28;20037;-85
2023/04/15 06:29:13;;;;;;;1.92;1.77;;;7.10;99.90;;;;;;5055701;28;20153;-85
2023/04/15 06:31:38;;;;;;;0.28;0.28;;;6.70;99.90;;;;;;5083711;28;20088;-84
2023/04/15 06:34:04;;;;;;;2.65;0.77;;;6.80;99.90;;;;;;5092200;28;20056;-85
2023/04/15 06:36:31;;;;;;;0.47;0.25;;;6.90;99.90;;;;;;5092875;28;20032;-85
2023/04/15 06:39:00;;;;;;;1.10;1.00;;;7.10;99.90;;;;;;5091967;28;20047;-84
2023/04/15 06:41:25;;;;;;;0.73;0.55;;;7.20;99.90;;;;;;5091700;28;20063;-84
2023/04/15 06:43:51;;;;;;;0.30;0.30;;;7.30;99.90;;;;;;5091584;28;20047;-85
2023/04/15 06:46:17;;;;;;;1.83;0.88;;;7.40;99.90;;;;;;5089691;28;20092;-84
2023/04/15 06:48:43;;;;;;;1.25;0.70;;;7.50;99.90;;;;;;5075415;28;20047;-84
2023/04/15 06:51:09;;;;;;;0.47;0.43;;;7.60;99.90;;;;;;5067846;28;20056;-83
2023/04/15 06:53:39;;;;;;;0.52;0.52;;;7.70;99.90;;;;;;5063630;28;20387;-84
2023/04/15 06:56:06;;;;;;;1.35;0.70;;;8.80;99.90;;;;;;5065366;28;20051;-85
2023/04/15 06:58:32;;;;;;;0.13;0.13;;;7.80;99.90;;;;;;5064463;28;20522;-85
2023/04/15 07:00:58;;;;;;;0.50;0.50;;;7.80;99.90;;;;;;5067527;28;20190;-85
2023/04/15 07:03:23;;;;;;;3.20;1.55;;;8.00;99.90;;;;;;5065192;28;20681;-85
2023/04/15 07:05:49;;;;;;;0.40;0.35;;;7.80;99.90;;;;;;5066234;28;20045;-86
2023/04/15 07:08:15;;;;;;;0.20;0.20;;;7.80;99.90;;;;;;5064677;28;20048;-85
2023/04/15 07:10:41;;;;;;;0.55;0.55;;;7.90;99.90;;;;;;5066711;28;20052;-84
2023/04/15 07:13:07;;;;;;;0.10;0.10;;;8.00;99.90;;;;;;5067184;28;20380;-84
2023/04/15 07:15:33;;;;;;;0.85;0.70;;;8.10;99.90;;;;;;5066250;28;20052;-86
2023/04/15 07:17:59;;;;;;;1.80;0.80;;;8.20;99.90;;;;;;4925091;28;3543245;-86
2023/04/15 07:20:25;;;;;;;0.25;0.25;;;8.50;99.90;;;;;;5046309;28;20061;-86
2023/04/15 07:22:50;;;;;;;1.33;0.73;;;9.20;99.90;;;;;;5046758;28;20420;-86
2023/04/15 07:25:16;;;;;;;2.28;0.93;;;8.40;99.90;;;;;;5046325;28;20045;-86
2023/04/15 07:27:42;;;;;;;0.20;0.20;;;8.50;99.90;;;;;;5046426;28;20830;-85
2023/04/15 07:30:08;;;;;;;0.45;0.45;;;8.50;99.90;;;;;;5046657;28;20048;-85
2023/04/15 07:32:35;;;;;;;1.08;0.98;;;8.60;95.20;;;;;;5044092;28;20044;-86
2023/04/15 07:35:04;;;;;;;1.20;0.88;;;8.70;99.90;;;;;;5046027;28;20045;-84
2023/04/15 07:37:30;;;;;;;0.77;0.77;;;8.70;8.20;;;;;;5045788;28;20403;-85
2023/04/15 07:39:56;;;;;;;0.47;0.47;;;8.70;99.90;;;;;;5044474;28;20051;-85
2023/04/15 07:42:22;;;;;;;2.20;0.65;;;9.00;99.90;;;;;;5043475;28;20096;-85
2023/04/15 07:44:47;;;;;;;0.60;0.60;;;8.70;99.90;;;;;;5044938;28;20098;-86
2023/04/15 07:47:13;;;;;;;0.35;0.35;;;8.70;53.60;;;;;;5043667;28;20052;-85
2023/04/15 07:49:40;;;;;;;7.20;2.92;;;8.70;1.00;;;;;;5026630;28;20045;-85
2023/04/15 07:52:05;;;;;;;1.05;0.95;;;8.80;1.00;;;;;;5044719;28;20068;-86
2023/04/15 07:54:31;;;;;;;2.20;1.58;;;8.90;1.00;;;;;;5044692;28;20080;-85
2023/04/15 07:56:57;;;;;;;0.85;0.55;;;8.90;99.90;;;;;;5042870;28;20053;-85
2023/04/15 07:59:23;;;;;;;1.00;0.93;;;10.20;1.00;;;;;;5048463;28;20128;-83
2023/04/15 08:01:49;;;;;;;1.00;0.77;;;10.00;29.10;;;;;;5059628;28;20044;-83
2023/04/15 08:04:15;;;;;;;0.10;0.10;;;9.00;99.90;;;;;;5057704;28;20111;-82
2023/04/15 08:06:40;;;;;;;3.83;1.23;;;9.10;1.00;;;;;;5041744;28;20045;-84
2023/04/15 08:09:07;;;;;;;0.57;0.57;;;9.30;99.90;;;;;;5060343;28;20072;-84
2023/04/15 08:11:32;;;;;;;0.20;0.20;;;9.40;99.90;;;;;;5060005;28;20061;-83
2023/04/15 08:13:58;;;;;;;0.35;0.32;;;9.60;1.00;;;;;;5057701;28;20055;-84
2023/04/15 08:16:26;;;;;;;1.08;0.90;;;9.60;99.90;;;;;;5056254;28;20049;-83
2023/04/15 08:19:48;;;;;;;0.40;0.38;;;9.60;99.90;;;;;;5054659;28;20064;-84
2023/04/15 08:22:14;;;;;;;0.52;0.45;;;9.40;1.00;;;;;;5048449;28;20056;-84
2023/04/15 08:24:40;;;;;;;0.20;0.20;;;9.30;99.90;;;;;;5050044;28;20091;-83
2023/04/15 08:27:06;;;;;;;0.00;0.00;;;9.20;1.00;;;;;;5049246;28;20045;-84
2023/04/15 08:29:32;;;;;;;2.00;1.45;;;9.10;99.90;;;;;;5049545;28;20049;-83
2023/04/15 08:31:59;;;;;;;21.73;0.38;;;9.00;1.00;;;;;;5049163;28;20499;-83
2023/04/15 08:34:25;;;;;;;0.63;0.40;;;9.70;75.10;;;;;;5047376;28;20044;-85
2023/04/15 08:36:51;;;;;;;0.20;0.20;;;9.20;23.50;;;;;;5049090;28;20104;-84
2023/04/15 08:39:17;;;;;;;0.68;0.68;;;9.10;1.00;;;;;;5045871;28;20076;-83
2023/04/15 08:41:51;;;;;;;4.78;0.80;;;9.10;99.90;;;;;;5047440;28;20053;-84
2023/04/15 08:44:17;;;;;;;0.50;0.50;;;9.00;99.90;;;;;;5046370;28;20053;-84
2023/04/15 08:46:43;;;;;;;0.45;0.43;;;8.90;99.90;;;;;;5046568;28;20095;-84
2023/04/15 08:49:12;;;;;;;0.47;0.40;;;8.90;99.90;;;;;;5047204;28;20072;-84
2023/04/15 08:51:40;;;;;;;0.08;0.05;;;8.90;99.90;;;;;;5049576;28;20040;-84
2023/04/15 08:54:07;;;;;;;0.00;0.00;;;9.70;99.90;;;;;;5048214;28;20127;-84
2023/04/15 08:56:33;;;;;;;0.13;0.13;;;8.80;99.90;;;;;;5046272;28;20197;-84
2023/04/15 08:58:59;;;;;;;0.52;0.40;;;8.70;1.00;;;;;;5044578;28;20052;-84
2023/04/15 09:01:25;;;;;;;0.22;0.20;;;8.80;99.90;;;;;;5044096;28;20127;-84
2023/04/15 09:03:55;;;;;;;1.65;1.00;;;8.80;99.90;;;;;;5045567;28;20087;-86
2023/04/15 09:06:21;;;;;;;0.85;0.60;;;8.90;1.00;;;;;;5043900;28;20120;-85
2023/04/15 09:08:48;;;;;;;0.80;0.40;;;9.00;1.00;;;;;;5026230;28;20593;-85
2023/04/15 09:11:13;;;;;;;0.13;0.10;;;9.10;1.00;;;;;;5042883;28;20044;-85
2023/04/15 09:13:39;;;;;;;0.08;0.00;;;9.30;99.90;;;;;;5043401;28;20472;-85
2023/04/15 09:16:07;;;;;;;0.30;0.30;;;9.60;99.90;;;;;;5044017;28;20478;-85
2023/04/15 09:18:34;;;;;;;0.22;0.10;;;10.00;1.00;;;;;;5043436;28;20422;-85
2023/04/15 09:21:14;;;;;;;0.00;0.00;;;10.20;99.90;;;;;;5043695;28;20049;-85
2023/04/15 09:23:53;;;;;;;1.10;0.65;;;10.30;1.00;;;;;;5043350;28;20079;-84
2023/04/15 09:26:36;;;;;;;0.00;0.00;;;10.10;99.90;;;;;;5025687;28;20060;-85
2023/04/15 09:29:12;;;;;;;0.00;0.00;;;9.90;99.90;;;;;;5041535;28;20068;-85
2023/04/15 09:31:38;;;;;;;0.00;0.00;;;9.80;1.00;;;;;;5044994;28;20053;-85
2023/04/15 09:34:05;;;;;;;0.00;0.00;;;10.90;99.90;;;;;;5045739;28;20041;-85
2023/04/15 09:36:57;;;;;;;1.55;0.17;;;10.00;99.90;;;;;;5064571;28;20329;-84
2023/04/15 09:39:23;;;;;;;0.00;0.00;;;9.70;1.00;;;;;;5041708;28;20048;-84
2023/04/15 09:42:07;;;;;;;0.00;0.00;;;9.80;99.90;;;;;;5045145;28;20474;-85
2023/04/15 09:44:33;;;;;;;0.00;0.00;;;9.90;87.40;;;;;;5043380;28;20045;-85
2023/04/15 09:46:59;;;;;;;0.15;0.15;;;9.80;99.90;;;;;;5054421;28;20025;-85
2023/04/15 09:49:25;;;;;;;0.82;0.45;;;10.50;99.90;;;;;;5068439;28;20093;-85
2023/04/15 09:51:57;;;;;;;0.00;0.00;;;10.00;1.00;;;;;;5068369;28;20025;-84
2023/04/15 09:54:23;;;;;;;0.00;0.00;;;9.80;16.40;;;;;;5068156;28;20028;-85
2023/04/15 09:56:48;;;;;;;0.00;0.00;;;9.80;99.90;;;;;;5067925;28;20025;-85
2023/04/15 09:59:14;;;;;;;0.20;0.20;;;10.50;99.90;;;;;;5067551;28;20044;-85
2023/04/15 10:01:42;;;;;;;0.00;0.00;;;9.80;99.90;;;;;;5067259;28;20039;-84
2023/04/15 10:04:08;;;;;;;0.60;0.03;;;9.90;95.30;;;;;;5050983;28;20529;-84
2023/04/15 10:06:35;;;;;;;0.95;0.65;;;9.90;1.00;;;;;;5044947;28;20529;-85
2023/04/15 10:09:03;;;;;;;0.00;0.00;;;10.00;91.60;;;;;;5044669;28;20087;-85
2023/04/15 10:11:30;;;;;;;0.05;0.05;;;10.00;1.00;;;;;;5029131;28;20582;-85
2023/04/15 10:13:56;;;;;;;0.03;0.00;;;10.00;99.90;;;;;;5047959;28;20136;-85
2023/04/15 10:16:28;;;;;;;0.00;0.00;;;9.90;99.90;;;;;;5047295;28;20505;-84
2023/04/15 10:18:55;;;;;;;0.00;0.00;;;9.80;1.00;;;;;;5047469;28;20057;-85
2023/04/15 10:21:22;;;;;;;0.10;0.10;;;9.80;1.00;;;;;;5047955;28;20052;-86
2023/04/15 10:23:49;;;;;;;1.10;0.63;;;9.60;99.90;;;;;;5046873;28;20064;-84
2023/04/15 10:26:16;;;;;;;0.00;0.00;;;9.50;1.00;;;;;;5047469;28;20056;-83
2023/04/15 10:28:43;;;;;;;0.00;0.00;;;9.50;99.90;;;;;;5047929;28;20359;-84
2023/04/15 10:31:12;;;;;;;0.00;0.00;;;9.50;99.90;;;;;;5048073;28;20083;-84
2023/04/15 10:33:38;;;;;;;0.52;0.52;;;9.50;99.90;;;;;;5046959;28;20044;-84
2023/04/15 10:36:06;;;;;;;0.32;0.25;;;9.60;99.90;;;;;;5047837;28;20087;-85
2023/04/15 10:38:34;;;;;;;0.45;0.17;;;9.60;81.50;;;;;;5045955;28;20053;-84
2023/04/15 10:41:19;;;;;;;0.00;0.00;;;10.70;99.90;;;;;;5047535;28;20460;-85
2023/04/15 10:43:52;;;;;;;0.00;0.00;;;9.80;1.00;;;;;;5047299;28;20045;-85
2023/04/15 10:46:20;;;;;;;0.75;0.63;;;9.90;99.90;;;;;;5047516;28;20045;-84
2023/04/15 10:48:47;;;;;;;0.68;0.40;;;9.90;1.00;;;;;;5048087;28;20120;-84
2023/04/15 10:51:13;;;;;;;2.20;0.25;;;9.80;99.90;;;;;;5046147;28;20080;-84
2023/04/15 10:53:41;;;;;;;0.30;0.30;;;9.80;99.90;;;;;;5048107;28;20073;-84
2023/04/15 10:56:08;;;;;;;0.00;0.00;;;9.80;1.00;;;;;;5047847;28;20498;-85
2023/04/15 10:58:44;;;;;;;0.00;0.00;;;9.70;99.90;;;;;;5048572;28;20525;-84
2023/04/15 11:01:09;;;;;;;1.65;0.25;;;9.80;99.90;;;;;;5047321;28;20060;-85
2023/04/15 11:03:40;;;;;;;0.22;0.22;;;9.70;99.90;;;;;;5047056;28;20060;-85
2023/04/15 11:06:06;;;;;;;0.30;0.30;;;9.70;99.90;;;;;;5048501;28;20051;-84
2023/04/15 11:09:01;;;;;;;0.60;0.47;;;9.70;99.90;;;;;;5046436;28;20049;-84
2023/04/15 11:12:06;;;;;;;0.00;0.00;;;9.80;57.40;;;;;;5055894;28;20422;-85
2023/04/15 11:14:34;;;;;;;0.00;0.00;;;9.90;20.50;;;;;;5046910;28;20076;-85
2023/04/15 11:17:00;;;;;;;0.00;0.00;;;9.90;99.90;;;;;;5046412;28;20060;-83
2023/04/15 11:19:34;;;;;;;0.77;0.35;;;9.80;99.90;;;;;;5045950;28;20048;-84
2023/04/15 11:22:09;;;;;;;0.00;0.00;;;9.80;99.90;;;;;;5045801;28;20535;-85
2023/04/15 11:24:35;;;;;;;0.52;0.47;;;9.80;99.90;;;;;;5049290;28;20636;-85
2023/04/15 11:27:03;;;;;;;0.10;0.10;;;9.70;83.30;;;;;;5056251;28;20044;-83
2023/04/15 11:29:32;;;;;;;0.00;0.00;;;9.60;99.90;;;;;;5049120;28;20396;-84
2023/04/15 11:32:05;;;;;;;1.45;0.98;;;8.70;99.90;;;;;;5046253;28;20499;-84
2023/04/15 11:34:31;;;;;;;0.20;0.20;;;9.80;99.90;;;;;;5052978;28;20041;-85
2023/04/15 11:36:57;;;;;;;0.30;0.30;;;9.90;1.00;;;;;;5055322;28;20041;-84
2023/04/15 11:39:23;;;;;;;0.00;0.00;;;11.40;99.90;;;;;;5054916;28;20178;-85
2023/04/15 11:41:48;;;;;;;0.63;0.63;;;10.20;99.90;;;;;;5046093;28;20498;-85
2023/04/15 11:44:20;;;;;;;0.22;0.22;;;10.30;90.20;;;;;;5046321;28;20052;-85
2023/04/15 11:46:46;;;;;;;0.00;0.00;;;10.30;99.90;;;;;;5052559;28;20049;-84
2023/04/15 11:49:25;;;;;;;0.38;0.38;;;10.00;99.90;;;;;;5067504;28;20135;-83
2023/04/15 11:51:51;;;;;;;0.00;0.00;;;10.80;99.90;;;;;;5064423;28;20123;-85
2023/04/15 11:54:20;;;;;;;0.25;0.22;;;10.30;99.90;;;;;;5046242;28;20555;-84
2023/04/15 11:56:50;;;;;;;0.00;0.00;;;11.10;99.90;;;;;;5052158;28;20040;-84
2023/04/15 11:59:16;;;;;;;0.00;0.00;;;10.40;99.90;;;;;;5054276;28;20137;-84
2023/04/15 12:01:44;;;;;;;0.10;0.10;;;10.50;99.90;;;;;;5046060;28;20128;-84
2023/04/15 12:04:17;;;;;;;0.73;0.45;;;10.50;99.90;;;;;;5045633;28;20053;-84
2023/04/15 12:06:44;;;;;;;1.27;1.08;;;10.70;1.00;;;;;;5044737;28;20041;-85
2023/04/15 12:09:15;;;;;;;5.32;1.15;;;11.00;1.00;;;;;;5050858;28;20033;-84
2023/04/15 12:11:41;;;;;;;1.42;0.88;;;10.50;1.00;;;;;;5065042;28;20040;-84
2023/04/15 12:14:08;;;;;;;0.05;0.05;;;10.30;99.90;;;;;;5059573;28;20045;-84
2023/04/15 12:16:48;;;;;;;0.00;0.00;;;10.20;99.90;;;;;;5041792;28;20073;-84
2023/04/15 12:19:15;;;;;;;1.65;0.45;;;10.20;1.00;;;;;;5054696;28;20479;-86
2023/04/15 12:21:44;;;;;;;0.00;0.00;;;10.30;1.00;;;;;;5061986;28;20048;-85
2023/04/15 12:24:11;;;;;;;0.00;0.00;;;10.30;1.00;;;;;;5062369;28;20122;-85
2023/04/15 12:26:49;;;;;;;0.00;0.00;;;10.30;1.00;;;;;;5060024;28;20075;-84
2023/04/15 12:29:16;;;;;;;1.75;0.17;;;10.20;99.90;;;;;;5030683;28;20075;-83
2023/04/15 12:31:50;;;;;;;0.20;0.20;;;10.30;99.90;;;;;;5044732;28;20059;-84
2023/04/15 12:34:16;;;;;;;0.22;0.20;;;10.20;1.00;;;;;;5047912;28;20399;-84
2023/04/15 12:36:42;;;;;;;0.22;0.20;;;10.20;99.90;;;;;;5070556;28;20879;-84
2023/04/15 12:39:09;;;;;;;0.00;0.00;;;10.30;1.00;;;;;;5069167;28;20119;-84
2023/04/15 12:41:35;;;;;;;0.00;0.00;;;10.10;99.90;;;;;;5066494;28;20044;-84
2023/04/15 12:44:00;;;;;;;0.10;0.10;;;9.80;1.00;;;;;;5066416;28;20128;-84
2023/04/15 12:46:27;;;;;;;0.70;0.47;;;9.70;1.00;;;;;;5087602;28;20032;-85
2023/04/15 12:48:53;;;;;;;0.30;0.22;;;9.60;76.50;;;;;;5079941;28;20029;-84
2023/04/15 12:51:21;;;;;;;0.47;0.30;;;9.40;99.90;;;;;;5070611;28;20037;-85
2023/04/15 12:53:48;;;;;;;0.47;0.45;;;10.90;99.90;;;;;;5069314;28;20048;-85
2023/04/15 12:56:14;;;;;;;0.00;0.00;;;9.40;1.00;;;;;;5072646;28;20029;-84
2023/04/15 12:58:39;;;;;;;0.80;0.43;;;9.30;1.00;;;;;;5089030;28;20059;-85